sensor_id;sensor_type;location;lat;lon;timestamp;pressure;altitude;pressure_sealevel;temperature;humidity
76201;BME280;64981;52.930;9.266;2022-12-18T00:00:31;102636.84;;;1.15;49.63
76201;BME280;64981;52.930;9.266;2022-12-18T00:02:56;102635.28;;;1.10;50.21
76201;BME280;64981;52.930;9.266;2022-12-18T00:05:22;102637.91;;;1.08;50.58
76201;BME280;64981;52.930;9.266;2022-12-18T00:07:47;102646.09;;;0.94;51.55
76201;BME280;64981;52.930;9.266;2022-12-18T00:10:12;102651.88;;;1.04;50.62
76201;BME280;64981;52.930;9.266;2022-12-18T00:12:38;102647.81;;;0.95;49.57
76201;BME280;64981;52.930;9.266;2022-12-18T00:15:04;102650.03;;;1.07;50.55
76201;BME280;64981;52.930;9.266;2022-12-18T00:17:29;102652.69;;;1.06;49.57
76201;BME280;64981;52.930;9.266;2022-12-18T00:19:55;102658.75;;;1.06;50.07
76201;BME280;64981;52.930;9.266;2022-12-18T00:22:20;102666.44;;;1.10;50.19
76201;BME280;64981;52.930;9.266;2022-12-18T00:24:46;102669.91;;;1.08;50.21
76201;BME280;64981;52.930;9.266;2022-12-18T00:27:11;102666.53;;;1.06;50.51
76201;BME280;64981;52.930;9.266;2022-12-18T00:29:36;102658.75;;;1.05;50.47
76201;BME280;64981;52.930;9.266;2022-12-18T00:32:02;102656.19;;;1.03;50.71
76201;BME280;64981;52.930;9.266;2022-12-18T00:34:27;102645.00;;;1.03;50.24
76201;BME280;64981;52.930;9.266;2022-12-18T00:36:53;102645.13;;;0.98;50.13
76201;BME280;64981;52.930;9.266;2022-12-18T00:39:18;102651.88;;;1.04;49.31
76201;BME280;64981;52.930;9.266;2022-12-18T00:41:44;102642.44;;;1.01;49.70
76201;BME280;64981;52.930;9.266;2022-12-18T00:44:20;102667.13;;;0.85;49.06
76201;BME280;64981;52.930;9.266;2022-12-18T00:46:47;102658.16;;;0.97;49.51
76201;BME280;64981;52.930;9.266;2022-12-18T00:49:15;102659.56;;;0.78;50.32
76201;BME280;64981;52.930;9.266;2022-12-18T00:51:41;102650.00;;;0.49;51.92
76201;BME280;64981;52.930;9.266;2022-12-18T00:54:07;102663.31;;;0.68;50.98
76201;BME280;64981;52.930;9.266;2022-12-18T00:56:32;102662.09;;;0.79;51.05
76201;BME280;64981;52.930;9.266;2022-12-18T00:58:58;102652.63;;;0.78;50.50
76201;BME280;64981;52.930;9.266;2022-12-18T01:01:23;102655.09;;;0.83;50.13
76201;BME280;64981;52.930;9.266;2022-12-18T01:03:48;102649.72;;;0.89;50.24
76201;BME280;64981;52.930;9.266;2022-12-18T01:06:15;102650.66;;;0.86;50.21
76201;BME280;64981;52.930;9.266;2022-12-18T01:08:41;102642.88;;;0.86;50.01
76201;BME280;64981;52.930;9.266;2022-12-18T01:11:08;102635.22;;;0.82;50.19
76201;BME280;64981;52.930;9.266;2022-12-18T01:13:34;102648.16;;;0.83;50.56
76201;BME280;64981;52.930;9.266;2022-12-18T01:16:00;102665.47;;;0.83;50.30
76201;BME280;64981;52.930;9.266;2022-12-18T01:18:25;102658.53;;;0.83;50.07
76201;BME280;64981;52.930;9.266;2022-12-18T01:20:51;102659.16;;;0.91;49.33
76201;BME280;64981;52.930;9.266;2022-12-18T01:23:16;102660.88;;;0.92;49.39
76201;BME280;64981;52.930;9.266;2022-12-18T01:25:42;102661.75;;;0.91;48.32
76201;BME280;64981;52.930;9.266;2022-12-18T01:28:07;102669.50;;;0.93;48.29
76201;BME280;64981;52.930;9.266;2022-12-18T01:30:33;102679.03;;;0.92;48.18
76201;BME280;64981;52.930;9.266;2022-12-18T01:32:58;102644.88;;;0.77;48.19
76201;BME280;64981;52.930;9.266;2022-12-18T01:35:24;102683.50;;;0.87;49.00
76201;BME280;64981;52.930;9.266;2022-12-18T01:37:54;102681.09;;;0.81;49.40
76201;BME280;64981;52.930;9.266;2022-12-18T01:40:19;102686.22;;;0.83;49.76
76201;BME280;64981;52.930;9.266;2022-12-18T01:42:50;102689.69;;;0.83;49.78
76201;BME280;64981;52.930;9.266;2022-12-18T01:45:28;102690.53;;;0.84;49.05
76201;BME280;64981;52.930;9.266;2022-12-18T01:47:59;102671.78;;;0.73;48.79
76201;BME280;64981;52.930;9.266;2022-12-18T01:50:34;102699.91;;;0.88;49.24
76201;BME280;64981;52.930;9.266;2022-12-18T01:53:12;102676.00;;;0.78;49.30
76201;BME280;64981;52.930;9.266;2022-12-18T01:55:45;102694.06;;;0.81;49.72
76201;BME280;64981;52.930;9.266;2022-12-18T01:58:12;102677.81;;;0.75;49.71
76201;BME280;64981;52.930;9.266;2022-12-18T02:00:38;102694.88;;;0.82;49.98
76201;BME280;64981;52.930;9.266;2022-12-18T02:03:03;102693.22;;;0.81;49.72
76201;BME280;64981;52.930;9.266;2022-12-18T02:05:45;102687.25;;;0.77;50.26
76201;BME280;64981;52.930;9.266;2022-12-18T02:08:25;102683.78;;;0.78;50.54
76201;BME280;64981;52.930;9.266;2022-12-18T02:11:10;102679.31;;;0.82;50.71
76201;BME280;64981;52.930;9.266;2022-12-18T02:14:00;102678.63;;;0.77;51.09
76201;BME280;64981;52.930;9.266;2022-12-18T02:19:44;102692.00;;;0.92;50.02
76201;BME280;64981;52.930;9.266;2022-12-18T02:22:29;102675.56;;;0.92;49.51
76201;BME280;64981;52.930;9.266;2022-12-18T02:25:21;102690.22;;;0.94;49.01
76201;BME280;64981;52.930;9.266;2022-12-18T02:27:52;102675.66;;;0.89;49.01
76201;BME280;64981;52.930;9.266;2022-12-18T02:30:20;102681.53;;;0.95;48.62
76201;BME280;64981;52.930;9.266;2022-12-18T02:32:52;102681.72;;;0.89;48.38
76201;BME280;64981;52.930;9.266;2022-12-18T02:35:24;102676.00;;;0.77;48.17
76201;BME280;64981;52.930;9.266;2022-12-18T02:37:54;102675.00;;;0.82;48.03
76201;BME280;64981;52.930;9.266;2022-12-18T02:40:23;102677.56;;;0.82;47.79
76201;BME280;64981;52.930;9.266;2022-12-18T02:42:50;102683.50;;;0.87;49.09
76201;BME280;64981;52.930;9.266;2022-12-18T02:45:15;102654.41;;;0.76;49.54
76201;BME280;64981;52.930;9.266;2022-12-18T02:47:47;102680.78;;;0.92;49.07
76201;BME280;64981;52.930;9.266;2022-12-18T02:50:24;102667.19;;;0.84;48.87
76201;BME280;64981;52.930;9.266;2022-12-18T02:53:06;102670.53;;;0.87;50.07
76201;BME280;64981;52.930;9.266;2022-12-18T02:58:47;102668.91;;;0.83;49.68
76201;BME280;64981;52.930;9.266;2022-12-18T03:01:35;102666.34;;;0.82;49.84
76201;BME280;64981;52.930;9.266;2022-12-18T03:04:12;102675.84;;;0.83;50.30
76201;BME280;64981;52.930;9.266;2022-12-18T03:06:45;102672.38;;;0.84;49.04
76201;BME280;64981;52.930;9.266;2022-12-18T03:09:34;102639.28;;;0.61;47.91
76201;BME280;64981;52.930;9.266;2022-12-18T03:12:14;102681.13;;;0.80;47.75
76201;BME280;64981;52.930;9.266;2022-12-18T03:14:54;102686.38;;;0.77;47.25
76201;BME280;64981;52.930;9.266;2022-12-18T03:17:25;102686.38;;;0.77;47.02
76201;BME280;64981;52.930;9.266;2022-12-18T03:19:56;102689.00;;;0.75;48.13
76201;BME280;64981;52.930;9.266;2022-12-18T03:22:27;102685.03;;;0.64;47.77
76201;BME280;64981;52.930;9.266;2022-12-18T03:24:56;102685.28;;;0.54;48.77
76201;BME280;64981;52.930;9.266;2022-12-18T03:27:25;102694.47;;;0.66;49.66
76201;BME280;64981;52.930;9.266;2022-12-18T03:30:01;102694.47;;;0.66;49.43
76201;BME280;64981;52.930;9.266;2022-12-18T03:32:40;102691.78;;;0.69;48.67
76201;BME280;64981;52.930;9.266;2022-12-18T03:35:11;102685.69;;;0.72;48.34
76201;BME280;64981;52.930;9.266;2022-12-18T03:37:38;102687.34;;;0.74;48.91
76201;BME280;64981;52.930;9.266;2022-12-18T03:40:05;102696.00;;;0.73;47.94
76201;BME280;64981;52.930;9.266;2022-12-18T03:42:47;102695.44;;;0.62;49.00
76201;BME280;64981;52.930;9.266;2022-12-18T03:45:34;102689.53;;;0.57;49.11
76201;BME280;64981;52.930;9.266;2022-12-18T03:48:26;102689.44;;;0.60;48.42
76201;BME280;64981;52.930;9.266;2022-12-18T03:51:06;102698.00;;;0.64;48.26
76201;BME280;64981;52.930;9.266;2022-12-18T03:53:58;102692.88;;;0.61;48.49
76201;BME280;64981;52.930;9.266;2022-12-18T03:56:29;102676.63;;;0.54;48.75
76201;BME280;64981;52.930;9.266;2022-12-18T03:58:58;102692.53;;;0.42;49.17
76201;BME280;64981;52.930;9.266;2022-12-18T04:01:30;102690.59;;;0.50;49.65
76201;BME280;64981;52.930;9.266;2022-12-18T04:04:00;102678.00;;;0.35;49.14
76201;BME280;64981;52.930;9.266;2022-12-18T04:06:29;102693.47;;;0.39;49.83
76201;BME280;64981;52.930;9.266;2022-12-18T04:08:57;102694.25;;;0.41;49.89
76201;BME280;64981;52.930;9.266;2022-12-18T04:11:23;102685.09;;;-0.06;51.64
76201;BME280;64981;52.930;9.266;2022-12-18T04:13:49;102680.03;;;0.24;50.57
76201;BME280;64981;52.930;9.266;2022-12-18T04:16:14;102683.16;;;0.36;49.76
76201;BME280;64981;52.930;9.266;2022-12-18T04:18:40;102689.06;;;0.43;49.93
76201;BME280;64981;52.930;9.266;2022-12-18T04:21:05;102681.28;;;0.43;49.58
76201;BME280;64981;52.930;9.266;2022-12-18T04:23:31;102672.66;;;0.41;50.21
76201;BME280;64981;52.930;9.266;2022-12-18T04:25:56;102676.19;;;0.38;50.54
76201;BME280;64981;52.930;9.266;2022-12-18T04:28:22;102667.78;;;0.30;51.08
76201;BME280;64981;52.930;9.266;2022-12-18T04:30:47;102664.78;;;0.45;50.38
76201;BME280;64981;52.930;9.266;2022-12-18T04:33:13;102664.78;;;0.45;50.47
76201;BME280;64981;52.930;9.266;2022-12-18T04:35:40;102663.81;;;0.49;50.65
76201;BME280;64981;52.930;9.266;2022-12-18T04:38:07;102661.13;;;0.52;50.66
76201;BME280;64981;52.930;9.266;2022-12-18T04:40:34;102668.06;;;0.52;50.12
76201;BME280;64981;52.930;9.266;2022-12-18T04:42:59;102678.59;;;0.46;51.09
76201;BME280;64981;52.930;9.266;2022-12-18T04:45:24;102678.59;;;0.46;50.86
76201;BME280;64981;52.930;9.266;2022-12-18T04:47:50;102679.19;;;0.56;50.45
76201;BME280;64981;52.930;9.266;2022-12-18T04:50:15;102692.03;;;0.60;50.56
76201;BME280;64981;52.930;9.266;2022-12-18T04:52:41;102694.59;;;0.62;49.97
76201;BME280;64981;52.930;9.266;2022-12-18T04:55:06;102697.09;;;0.65;50.13
76201;BME280;64981;52.930;9.266;2022-12-18T04:57:32;102689.53;;;0.57;50.36
76201;BME280;64981;52.930;9.266;2022-12-18T04:59:58;102683.66;;;0.50;50.19
76201;BME280;64981;52.930;9.266;2022-12-18T05:02:23;102693.94;;;0.53;50.46
76201;BME280;64981;52.930;9.266;2022-12-18T05:04:48;102688.75;;;0.53;50.50
76201;BME280;64981;52.930;9.266;2022-12-18T05:07:14;102690.94;;;0.36;51.09
76201;BME280;64981;52.930;9.266;2022-12-18T05:09:39;102695.03;;;0.45;50.68
76201;BME280;64981;52.930;9.266;2022-12-18T05:12:05;102699.19;;;0.50;50.53
76201;BME280;64981;52.930;9.266;2022-12-18T05:14:31;102704.63;;;0.41;50.97
76201;BME280;64981;52.930;9.266;2022-12-18T05:16:56;102702.81;;;0.45;50.91
76201;BME280;64981;52.930;9.266;2022-12-18T05:19:21;102705.31;;;0.48;50.50
76201;BME280;64981;52.930;9.266;2022-12-18T05:21:47;102719.69;;;0.61;50.51
76201;BME280;64981;52.930;9.266;2022-12-18T05:24:12;102722.47;;;0.53;50.43
76201;BME280;64981;52.930;9.266;2022-12-18T05:26:38;102719.78;;;0.57;50.41
76201;BME280;64981;52.930;9.266;2022-12-18T05:29:03;102721.94;;;0.41;50.32
76201;BME280;64981;52.930;9.266;2022-12-18T05:31:29;102704.63;;;0.41;50.07
76201;BME280;64981;52.930;9.266;2022-12-18T05:33:54;102721.56;;;0.56;49.89
76201;BME280;64981;52.930;9.266;2022-12-18T05:36:20;102725.72;;;0.62;49.97
76201;BME280;64981;52.930;9.266;2022-12-18T05:38:45;102719.59;;;0.64;49.80
76201;BME280;64981;52.930;9.266;2022-12-18T05:41:11;102732.44;;;0.36;50.24
76201;BME280;64981;52.930;9.266;2022-12-18T05:43:39;102729.94;;;0.32;50.53
76201;BME280;64981;52.930;9.266;2022-12-18T05:46:08;102732.34;;;0.39;50.54
76201;BME280;64981;52.930;9.266;2022-12-18T05:48:34;102727.19;;;0.38;50.46
76201;BME280;64981;52.930;9.266;2022-12-18T05:51:06;102720.97;;;0.11;50.72
76201;BME280;64981;52.930;9.266;2022-12-18T05:53:32;102728.09;;;0.37;50.36
76201;BME280;64981;52.930;9.266;2022-12-18T05:56:03;102730.78;;;-0.02;51.16
76201;BME280;64981;52.930;9.266;2022-12-18T05:58:29;102737.38;;;0.12;50.69
76201;BME280;64981;52.930;9.266;2022-12-18T06:00:54;102743.03;;;0.27;50.53
76201;BME280;64981;52.930;9.266;2022-12-18T06:03:20;102723.09;;;0.29;49.62
76201;BME280;64981;52.930;9.266;2022-12-18T06:05:45;102736.59;;;0.42;49.56
76201;BME280;64981;52.930;9.266;2022-12-18T06:08:12;102733.06;;;0.46;49.70
76201;BME280;64981;52.930;9.266;2022-12-18T06:10:39;102728.84;;;0.07;49.98
76201;BME280;64981;52.930;9.266;2022-12-18T06:13:05;102691.13;;;-0.05;50.16
76201;BME280;64981;52.930;9.266;2022-12-18T06:15:32;102674.59;;;-0.35;51.32
76201;BME280;64981;52.930;9.266;2022-12-18T06:17:58;102709.84;;;-0.29;51.19
76201;BME280;64981;52.930;9.266;2022-12-18T06:20:23;102705.16;;;-0.14;51.12
76201;BME280;64981;52.930;9.266;2022-12-18T06:22:49;102691.56;;;-0.23;51.13
76201;BME280;64981;52.930;9.266;2022-12-18T06:25:15;102712.06;;;-0.13;51.32
76201;BME280;64981;52.930;9.266;2022-12-18T06:27:41;102716.25;;;-0.07;51.31
76201;BME280;64981;52.930;9.266;2022-12-18T06:30:07;102677.56;;;-0.51;51.46
76201;BME280;64981;52.930;9.266;2022-12-18T06:32:33;102716.75;;;-0.30;51.57
76201;BME280;64981;52.930;9.266;2022-12-18T06:34:59;102720.66;;;-0.49;52.02
76201;BME280;64981;52.930;9.266;2022-12-18T06:37:24;102739.06;;;-0.24;52.24
76201;BME280;64981;52.930;9.266;2022-12-18T06:39:52;102689.78;;;-0.58;51.37
76201;BME280;64981;52.930;9.266;2022-12-18T06:42:17;102695.31;;;-0.36;51.43
76201;BME280;64981;52.930;9.266;2022-12-18T06:44:43;102737.91;;;-0.10;51.15
76201;BME280;64981;52.930;9.266;2022-12-18T06:47:08;102747.75;;;0.12;51.05
76201;BME280;64981;52.930;9.266;2022-12-18T06:49:34;102729.06;;;-0.03;51.08
76201;BME280;64981;52.930;9.266;2022-12-18T06:51:59;102760.44;;;-0.13;51.50
76201;BME280;64981;52.930;9.266;2022-12-18T06:54:25;102749.78;;;-0.03;51.21
76201;BME280;64981;52.930;9.266;2022-12-18T06:56:50;102687.19;;;-0.58;51.50
76201;BME280;64981;52.930;9.266;2022-12-18T06:59:16;102698.06;;;-0.42;51.50
76201;BME280;64981;52.930;9.266;2022-12-18T07:01:41;102759.44;;;-0.08;51.23
76201;BME280;64981;52.930;9.266;2022-12-18T07:04:07;102697.91;;;-0.36;51.21
76201;BME280;64981;52.930;9.266;2022-12-18T07:06:32;102672.44;;;-0.55;51.17
76201;BME280;64981;52.930;9.266;2022-12-18T07:08:58;102759.13;;;0.06;51.54
76201;BME280;64981;52.930;9.266;2022-12-18T07:11:24;102711.94;;;-0.46;51.47
76201;BME280;64981;52.930;9.266;2022-12-18T07:13:49;102768.94;;;-0.08;51.38
76201;BME280;64981;52.930;9.266;2022-12-18T07:16:19;102777.22;;;-0.31;52.06
76201;BME280;64981;52.930;9.266;2022-12-18T07:18:44;102722.22;;;-0.42;51.66
76201;BME280;64981;52.930;9.266;2022-12-18T07:21:14;102777.13;;;-0.28;51.68
76201;BME280;64981;52.930;9.266;2022-12-18T07:23:40;102718.41;;;-0.64;51.98
76201;BME280;64981;52.930;9.266;2022-12-18T07:26:08;102769.94;;;-0.15;51.40
76201;BME280;64981;52.930;9.266;2022-12-18T07:28:35;102598.97;;;-1.26;51.12
76201;BME280;64981;52.930;9.266;2022-12-18T07:31:04;102741.13;;;-0.38;51.51
76201;BME280;64981;52.930;9.266;2022-12-18T07:33:30;102661.25;;;-0.95;51.38
76201;BME280;64981;52.930;9.266;2022-12-18T07:35:55;102720.63;;;-0.47;51.27
76201;BME280;64981;52.930;9.266;2022-12-18T07:38:21;102562.25;;;-1.41;51.27
76201;BME280;64981;52.930;9.266;2022-12-18T07:40:47;102747.53;;;-0.56;52.08
76201;BME280;64981;52.930;9.266;2022-12-18T07:43:12;102743.59;;;-0.34;51.46
76201;BME280;64981;52.930;9.266;2022-12-18T07:45:38;102783.09;;;-0.23;51.47
76201;BME280;64981;52.930;9.266;2022-12-18T07:48:03;102623.84;;;-1.20;51.60
76201;BME280;64981;52.930;9.266;2022-12-18T07:50:29;102710.13;;;-0.41;51.44
76201;BME280;64981;52.930;9.266;2022-12-18T07:52:54;102801.31;;;0.11;51.60
76201;BME280;64981;52.930;9.266;2022-12-18T07:55:20;102787.50;;;0.11;51.14
76201;BME280;64981;52.930;9.266;2022-12-18T07:57:45;102755.63;;;0.07;51.19
76201;BME280;64981;52.930;9.266;2022-12-18T08:00:11;102760.47;;;0.21;50.85
76201;BME280;64981;52.930;9.266;2022-12-18T08:02:38;102726.38;;;0.02;50.62
76201;BME280;64981;52.930;9.266;2022-12-18T08:05:03;102761.75;;;0.38;50.19
76201;BME280;64981;52.930;9.266;2022-12-18T08:07:29;102745.63;;;0.27;50.69
76201;BME280;64981;52.930;9.266;2022-12-18T08:09:54;102738.94;;;0.19;50.55
76201;BME280;64981;52.930;9.266;2022-12-18T08:12:20;102651.53;;;-0.47;51.08
76201;BME280;64981;52.930;9.266;2022-12-18T08:14:45;102438.13;;;-2.21;51.87
76201;BME280;64981;52.930;9.266;2022-12-18T08:17:11;102531.22;;;-1.41;52.08
76201;BME280;64981;52.930;9.266;2022-12-18T08:19:36;102727.34;;;-0.39;52.17
76201;BME280;64981;52.930;9.266;2022-12-18T08:22:02;102665.59;;;-0.57;52.11
76201;BME280;64981;52.930;9.266;2022-12-18T08:24:27;102758.03;;;-0.22;52.42
76201;BME280;64981;52.930;9.266;2022-12-18T08:26:53;102753.88;;;0.08;52.32
76201;BME280;64981;52.930;9.266;2022-12-18T08:29:18;102764.00;;;0.18;52.09
76201;BME280;64981;52.930;9.266;2022-12-18T08:31:44;102457.31;;;-1.13;51.55
76201;BME280;64981;52.930;9.266;2022-12-18T08:34:09;102480.19;;;-0.96;50.70
76201;BME280;64981;52.930;9.266;2022-12-18T08:36:35;102567.53;;;-0.02;49.99
76201;BME280;64981;52.930;9.266;2022-12-18T08:39:03;102566.19;;;0.16;49.79
76201;BME280;64981;52.930;9.266;2022-12-18T08:41:28;102743.47;;;1.66;49.27
76201;BME280;64981;52.930;9.266;2022-12-18T08:43:53;102764.44;;;1.60;49.47
76201;BME280;64981;52.930;9.266;2022-12-18T08:46:37;102562.00;;;0.43;49.36
76201;BME280;64981;52.930;9.266;2022-12-18T08:49:04;102534.31;;;1.00;48.48
76201;BME280;64981;52.930;9.266;2022-12-18T08:51:29;102750.53;;;2.43;48.23
76201;BME280;64981;52.930;9.266;2022-12-18T08:53:55;102763.03;;;2.83;47.32
76201;BME280;64981;52.930;9.266;2022-12-18T08:56:20;102501.59;;;1.74;46.58
76201;BME280;64981;52.930;9.266;2022-12-18T08:58:46;102660.47;;;3.33;45.79
76201;BME280;64981;52.930;9.266;2022-12-18T09:01:12;102736.16;;;4.17;45.29
76201;BME280;64981;52.930;9.266;2022-12-18T09:03:39;102587.91;;;4.26;44.10
76201;BME280;64981;52.930;9.266;2022-12-18T09:06:06;102730.22;;;5.52;42.65
76201;BME280;64981;52.930;9.266;2022-12-18T09:08:31;102533.50;;;4.38;42.64
76201;BME280;64981;52.930;9.266;2022-12-18T09:10:57;102733.69;;;5.33;42.46
76201;BME280;64981;52.930;9.266;2022-12-18T09:13:23;102673.84;;;5.27;42.52
76201;BME280;64981;52.930;9.266;2022-12-18T09:15:51;102728.13;;;5.96;42.08
76201;BME280;64981;52.930;9.266;2022-12-18T09:18:19;102729.97;;;6.29;41.54
76201;BME280;64981;52.930;9.266;2022-12-18T09:20:46;102727.13;;;6.34;42.03
76201;BME280;64981;52.930;9.266;2022-12-18T09:23:12;102730.28;;;5.69;42.00
76201;BME280;64981;52.930;9.266;2022-12-18T09:25:38;102723.72;;;6.15;41.59
76201;BME280;64981;52.930;9.266;2022-12-18T09:28:10;102725.47;;;6.66;41.00
76201;BME280;64981;52.930;9.266;2022-12-18T09:30:38;102700.84;;;7.18;40.22
76201;BME280;64981;52.930;9.266;2022-12-18T09:33:04;102584.03;;;6.33;40.18
76201;BME280;64981;52.930;9.266;2022-12-18T09:35:31;102703.88;;;6.78;39.95
76201;BME280;64981;52.930;9.266;2022-12-18T09:37:56;102417.91;;;5.42;39.86
76201;BME280;64981;52.930;9.266;2022-12-18T09:40:26;102715.22;;;6.61;40.91
76201;BME280;64981;52.930;9.266;2022-12-18T09:43:00;102718.03;;;6.91;40.59
76201;BME280;64981;52.930;9.266;2022-12-18T09:45:31;102723.50;;;6.86;40.91
76201;BME280;64981;52.930;9.266;2022-12-18T09:48:05;102718.09;;;6.39;42.07
76201;BME280;64981;52.930;9.266;2022-12-18T09:50:38;102569.88;;;5.34;42.06
76201;BME280;64981;52.930;9.266;2022-12-18T09:53:15;102592.34;;;5.55;41.83
76201;BME280;64981;52.930;9.266;2022-12-18T09:55:45;102547.59;;;5.08;42.09
76201;BME280;64981;52.930;9.266;2022-12-18T09:58:20;102594.50;;;4.93;43.83
76201;BME280;64981;52.930;9.266;2022-12-18T10:00:52;102765.94;;;6.26;42.49
76201;BME280;64981;52.930;9.266;2022-12-18T10:03:18;102736.00;;;5.96;43.05
76201;BME280;64981;52.930;9.266;2022-12-18T10:06:01;102765.81;;;6.10;42.90
76201;BME280;64981;52.930;9.266;2022-12-18T10:08:49;102773.47;;;5.59;44.35
76201;BME280;64981;52.930;9.266;2022-12-18T10:11:32;102763.72;;;5.62;44.27
76201;BME280;64981;52.930;9.266;2022-12-18T10:14:11;102765.72;;;5.38;45.17
76201;BME280;64981;52.930;9.266;2022-12-18T10:17:07;102771.09;;;5.15;45.19
76201;BME280;64981;52.930;9.266;2022-12-18T10:19:52;102744.50;;;4.87;46.02
76201;BME280;64981;52.930;9.266;2022-12-18T10:28:17;102756.00;;;4.63;46.56
76201;BME280;64981;52.930;9.266;2022-12-18T10:30:44;102757.88;;;4.79;46.50
76201;BME280;64981;52.930;9.266;2022-12-18T10:33:20;102757.69;;;4.64;47.25
76201;BME280;64981;52.930;9.266;2022-12-18T10:35:59;102702.72;;;4.67;46.35
76201;BME280;64981;52.930;9.266;2022-12-18T10:38:28;102736.34;;;4.95;46.37
76201;BME280;64981;52.930;9.266;2022-12-18T10:44:20;102478.28;;;3.89;45.49
76201;BME280;64981;52.930;9.266;2022-12-18T10:47:03;102655.75;;;4.85;45.79
76201;BME280;64981;52.930;9.266;2022-12-18T10:49:32;102674.75;;;5.26;45.45
76201;BME280;64981;52.930;9.266;2022-12-18T10:52:22;102710.56;;;5.62;45.20
76201;BME280;64981;52.930;9.266;2022-12-18T10:54:55;102393.69;;;3.17;46.18
76201;BME280;64981;52.930;9.266;2022-12-18T10:57:37;102588.84;;;4.64;45.96
76201;BME280;64981;52.930;9.266;2022-12-18T11:00:25;102706.63;;;4.97;46.46
76201;BME280;64981;52.930;9.266;2022-12-18T11:02:51;102529.25;;;3.56;47.02
76201;BME280;64981;52.930;9.266;2022-12-18T11:05:33;102653.88;;;4.30;46.99
76201;BME280;64981;52.930;9.266;2022-12-18T11:08:00;102442.69;;;3.07;47.21
76201;BME280;64981;52.930;9.266;2022-12-18T11:10:30;102709.28;;;4.96;47.10
76201;BME280;64981;52.930;9.266;2022-12-18T11:13:17;102561.34;;;3.78;47.08
76201;BME280;64981;52.930;9.266;2022-12-18T11:15:44;102654.13;;;4.04;47.80
76201;BME280;64981;52.930;9.266;2022-12-18T11:18:22;102695.88;;;4.24;48.50
76201;BME280;64981;52.930;9.266;2022-12-18T11:20:57;102671.13;;;3.92;48.93
76201;BME280;64981;52.930;9.266;2022-12-18T11:23:26;102676.75;;;4.23;48.40
76201;BME280;64981;52.930;9.266;2022-12-18T11:25:55;102647.28;;;4.21;48.28
76201;BME280;64981;52.930;9.266;2022-12-18T11:31:27;102682.84;;;4.83;47.59
76201;BME280;64981;52.930;9.266;2022-12-18T11:34:00;102634.78;;;4.68;47.86
76201;BME280;64981;52.930;9.266;2022-12-18T11:36:40;102654.22;;;5.19;46.56
76201;BME280;64981;52.930;9.266;2022-12-18T11:39:31;102390.25;;;3.75;46.54
76201;BME280;64981;52.930;9.266;2022-12-18T11:42:08;102605.66;;;4.96;46.46
76201;BME280;64981;52.930;9.266;2022-12-18T11:44:43;102653.97;;;5.42;46.14
76201;BME280;64981;52.930;9.266;2022-12-18T11:47:30;102652.53;;;5.72;46.36
76201;BME280;64981;52.930;9.266;2022-12-18T11:50:01;102650.81;;;5.54;45.73
76201;BME280;64981;52.930;9.266;2022-12-18T11:52:39;102572.81;;;4.72;46.97
76201;BME280;64981;52.930;9.266;2022-12-18T11:55:13;102641.00;;;5.40;46.84
76201;BME280;64981;52.930;9.266;2022-12-18T11:58:10;102627.53;;;5.84;45.96
76201;BME280;64981;52.930;9.266;2022-12-18T12:00:49;102625.88;;;6.00;45.83
76201;BME280;64981;52.930;9.266;2022-12-18T12:06:45;102616.50;;;6.63;44.54
76201;BME280;64981;52.930;9.266;2022-12-18T12:09:37;102609.63;;;6.61;44.50
76201;BME280;64981;52.930;9.266;2022-12-18T12:12:38;102614.75;;;6.95;43.68
76201;BME280;64981;52.930;9.266;2022-12-18T12:18:34;102594.94;;;7.36;42.78
76201;BME280;64981;52.930;9.266;2022-12-18T12:30:00;102588.34;;;6.67;44.58
76201;BME280;64981;52.930;9.266;2022-12-18T12:38:30;102585.84;;;5.64;46.26
76201;BME280;64981;52.930;9.266;2022-12-18T12:41:01;102561.06;;;5.54;46.06
76201;BME280;64981;52.930;9.266;2022-12-18T12:43:46;102574.28;;;5.68;46.76
76201;BME280;64981;52.930;9.266;2022-12-18T12:46:18;102565.09;;;5.95;45.91
76201;BME280;64981;52.930;9.266;2022-12-18T12:48:49;102565.16;;;5.93;46.18
76201;BME280;64981;52.930;9.266;2022-12-18T12:51:25;102551.91;;;5.62;46.90
76201;BME280;64981;52.930;9.266;2022-12-18T12:53:53;102554.78;;;5.39;47.22
76201;BME280;64981;52.930;9.266;2022-12-18T12:56:21;102555.09;;;5.33;47.63
76201;BME280;64981;52.930;9.266;2022-12-18T12:59:15;102551.88;;;5.28;47.48
76201;BME280;64981;52.930;9.266;2022-12-18T13:02:06;102551.03;;;4.73;48.29
76201;BME280;64981;52.930;9.266;2022-12-18T13:04:47;102537.59;;;4.99;48.08
76201;BME280;64981;52.930;9.266;2022-12-18T13:07:39;102542.53;;;4.49;49.21
76201;BME280;64981;52.930;9.266;2022-12-18T13:10:25;102552.13;;;4.67;48.46
76201;BME280;64981;52.930;9.266;2022-12-18T13:12:54;102537.41;;;4.48;48.62
76201;BME280;64981;52.930;9.266;2022-12-18T13:15:25;102544.00;;;4.55;48.91
76201;BME280;64981;52.930;9.266;2022-12-18T13:18:13;102564.38;;;4.28;49.35
76201;BME280;64981;52.930;9.266;2022-12-18T13:20:44;102551.63;;;4.41;48.89
76201;BME280;64981;52.930;9.266;2022-12-18T13:23:28;102554.16;;;4.42;49.51
76201;BME280;64981;52.930;9.266;2022-12-18T13:25:56;102545.69;;;3.98;50.32
76201;BME280;64981;52.930;9.266;2022-12-18T13:28:50;102552.16;;;3.90;50.59
76201;BME280;64981;52.930;9.266;2022-12-18T13:34:18;102546.25;;;4.25;50.05
76201;BME280;64981;52.930;9.266;2022-12-18T13:36:44;102533.75;;;4.13;50.20
76201;BME280;64981;52.930;9.266;2022-12-18T13:39:31;102533.50;;;3.99;49.77
76201;BME280;64981;52.930;9.266;2022-12-18T13:45:38;102506.63;;;4.36;49.16
76201;BME280;64981;52.930;9.266;2022-12-18T13:48:04;102506.38;;;4.42;48.70
76201;BME280;64981;52.930;9.266;2022-12-18T13:50:30;102512.81;;;4.33;48.56
76201;BME280;64981;52.930;9.266;2022-12-18T13:52:55;102510.81;;;3.81;50.30
76201;BME280;64981;52.930;9.266;2022-12-18T13:55:22;102526.38;;;4.02;49.14
76201;BME280;64981;52.930;9.266;2022-12-18T13:57:48;102519.44;;;4.21;48.78
76201;BME280;64981;52.930;9.266;2022-12-18T14:00:28;102521.38;;;4.37;48.82